Latest Weather Observations for Cape Naturaliste

IDW60801

Issued at 11:02 am WST Thursday 2 April 2015 (issued every 30 minutes, with the page automatically refreshed every 10 minutes)

About weather observations | Map of weather stations | Latest weather observations for WA | Other Formats
Station Details ID: 009519 Name: CAPE NATURALISTE Lat: -33.54 Lon: 115.02 Height: 109.0 m
Data from the previous 72 hours. | See also: Recent months at Cape Naturaliste
Date/Time
WST
Temp
°C
App
Temp
°C
Dew
Point
Rel
Hum
%
Delta-T
°C
Wind Press
QNH
hPa
Press
MSL
hPa
Rain
since 9 am
mm
Dir
 
Spd
km/h
Gust
km/h
Spd
kts
Gust
kts
02/11:00am 20.9 17.4 12.1 57 4.9 E 22 30 12 16 1022.4 1022.2 0.0
02/10:30am 19.8 15.7 11.6 59 4.5 E 24 30 13 16 1022.5 1022.3 0.0
02/10:00am 19.0 14.6 11.6 62 4.1 E 26 32 14 17 1022.7 1022.5 0.0
02/09:30am 18.7 13.9 11.8 64 3.8 E 28 33 15 18 1022.8 1022.6 0.0
02/09:00am 18.0 13.1 11.3 65 3.6 E 28 35 15 19 1022.8 1022.6 0.0
02/08:30am 17.3 12.3 10.9 66 3.5 E 28 37 15 20 1022.9 1022.7 0.0
02/08:00am 16.9 12.3 11.2 69 3.1 E 26 35 14 19 1022.9 1022.7 0.0
02/07:30am 15.9 10.9 10.9 72 2.7 E 28 35 15 19 1022.9 1022.7 0.0
02/07:00am 15.1 9.6 10.5 74 2.4 E 30 35 16 19 1022.8 1022.6 0.0
02/06:30am 14.6 9.4 10.2 75 2.3 E 28 35 15 19 1022.8 1022.6 0.0
02/06:00am 14.7 9.4 9.9 73 2.5 E 28 35 15 19 1022.7 1022.5 0.0
02/05:30am 14.7 9.0 9.7 72 2.6 E 30 39 16 21 1022.5 1022.3 0.0
02/05:00am 14.7 8.9 9.5 71 2.7 E 30 39 16 21 1022.4 1022.2 0.0
02/04:30am 14.9 8.8 9.7 71 2.7 E 32 41 17 22 1022.4 1022.2 0.0
02/04:00am 15.0 8.9 9.8 71 2.7 E 32 43 17 23 1022.3 1022.1 0.0
02/03:30am 15.0 8.3 9.6 70 2.8 E 35 41 19 22 1022.4 1022.2 0.0
02/03:00am 15.1 8.4 9.7 70 2.8 E 35 46 19 25 1022.4 1022.2 0.0
02/02:30am 15.2 8.5 9.6 69 2.9 E 35 46 19 25 1022.6 1022.4 0.0
02/02:00am 15.4 8.7 9.7 69 3.0 E 35 46 19 25 1022.9 1022.7 0.0
02/01:30am 15.5 8.8 9.6 68 3.1 E 35 46 19 25 1023.2 1023.0 0.0
02/01:00am 15.7 9.0 9.8 68 3.1 E 35 50 19 27 1023.4 1023.2 0.0
02/12:30am 15.9 8.1 9.8 67 3.2 E 41 50 22 27 1023.4 1023.2 0.0
02/12:00am 15.6 8.2 9.9 69 3.0 E 39 54 21 29 1023.3 1023.1 0.0
 
Date/Time
WST
Temp
°C
App
Temp
°C
Dew
Point
Rel
Hum
%
Delta-T
°C
Wind Press
QNH
hPa
Press
MSL
hPa
Rain
since 9 am
mm
Dir
 
Spd
km/h
Gust
km/h
Spd
kts
Gust
kts
01/11:30pm 15.7 8.7 9.8 68 3.1 E 37 52 20 28 1023.3 1023.1 0.0
01/11:00pm 15.6 8.1 9.5 67 3.2 ESE 39 54 21 29 1023.4 1023.2 0.0
01/10:30pm 15.1 8.4 9.5 69 2.9 ESE 35 46 19 25 1023.3 1023.1 0.0
01/10:00pm 15.1 8.4 9.5 69 2.9 ESE 35 48 19 26 1023.5 1023.3 0.0
01/09:30pm 15.1 9.0 9.7 70 2.8 ESE 32 44 17 24 1023.6 1023.4 0.0
01/09:00pm 15.2 8.9 9.8 70 2.8 SE 33 44 18 24 1023.3 1023.1 0.0
01/08:30pm 15.6 9.4 9.9 69 3.0 SE 33 46 18 25 1023.1 1022.9 0.0
01/08:00pm 16.1 10.9 10.2 68 3.1 SE 28 37 15 20 1023.0 1022.8 0.0
01/07:30pm 16.9 12.0 10.1 64 3.6 SE 26 35 14 19 1023.1 1022.9 0.0
01/07:00pm 17.5 13.0 9.9 61 4.0 SSE 24 33 13 18 1022.9 1022.7 0.0
01/06:30pm 18.1 13.8 9.5 57 4.5 SSE 22 28 12 15 1022.7 1022.5 0.0
01/06:00pm 19.4 16.0 7.8 47 6.0 SSE 15 20 8 11 1022.5 1022.3 0.0
01/05:30pm 21.0 17.3 8.0 43 6.8 SSE 17 26 9 14 1022.3 1022.1 0.0
01/05:00pm 22.3 18.9 7.7 39 7.6 ESE 15 26 8 14 1022.2 1022.0 0.0
01/04:30pm 22.8 19.0 7.4 37 8.0 ESE 17 28 9 15 1022.3 1022.1 0.0
01/04:00pm 22.8 18.5 7.0 36 8.2 ESE 19 24 10 13 1022.5 1022.3 0.0
01/03:30pm 23.6 20.3 8.1 37 8.2 ESE 15 20 8 11 1022.7 1022.5 0.0
01/03:00pm 23.4 19.7 7.9 37 8.2 E 17 26 9 14 1022.9 1022.7 0.0
01/02:30pm 23.3 19.0 7.8 37 8.2 E 20 28 11 15 1023.1 1022.9 0.0
01/02:00pm 23.0 19.3 7.9 38 7.9 E 17 24 9 13 1023.5 1023.3 0.0
01/01:30pm 23.4 18.6 7.5 36 8.4 E 22 32 12 17 1023.8 1023.6 0.0
01/01:00pm 23.2 18.7 8.5 39 7.8 E 22 30 12 16 1024.2 1024.0 0.0
01/12:30pm 22.3 17.2 7.7 39 7.6 E 24 32 13 17 1024.8 1024.6 0.0
01/12:00pm 22.2 16.9 6.8 37 7.9 E 24 35 13 19 1025.2 1025.0 0.0
01/11:30am 21.9 17.2 7.7 40 7.4 E 22 32 12 17 1025.5 1025.3 0.0
01/11:00am 20.5 16.8 7.8 44 6.6 E 17 26 9 14 1025.9 1025.7 0.0
01/10:30am 20.8 16.8 8.4 45 6.5 E 19 24 10 13 1026.1 1025.9 0.0
01/10:00am 19.8 15.2 8.2 47 6.0 E 22 30 12 16 1026.3 1026.1 0.0
01/09:30am 19.4 15.3 8.7 50 5.6 ESE 20 28 11 15 1026.4 1026.2 0.0
01/09:00am 18.5 14.2 7.9 50 5.4 SE 20 30 11 16 1026.5 1026.3 0.0
01/08:30am 17.7 13.9 7.4 51 5.2 SE 17 26 9 14 1026.3 1026.1 0.0
01/08:00am 16.2 12.1 7.7 57 4.3 SE 19 28 10 15 1026.0 1025.8 0.0
01/07:30am 14.3 9.9 7.4 63 3.4 SE 20 28 11 15 1025.9 1025.6 0.0
01/07:00am 13.0 8.6 7.5 69 2.7 SSE 20 26 11 14 1025.6 1025.3 0.0
01/06:30am 12.1 7.5 6.6 69 2.6 SSE 20 26 11 14 1025.4 1025.1 0.0
01/06:00am 12.1 7.7 6.4 68 2.7 SSE 19 24 10 13 1025.1 1024.8 0.0
01/05:30am 12.3 7.9 6.4 67 2.8 SSE 19 22 10 12 1024.8 1024.5 0.0
01/05:00am 12.4 8.0 6.5 67 2.8 SSE 19 24 10 13 1024.6 1024.3 0.0
01/04:30am 12.3 7.9 6.4 67 2.8 SSE 19 22 10 12 1024.4 1024.1 0.0
01/04:00am 12.4 8.0 6.7 68 2.7 SSE 19 24 10 13 1024.3 1024.0 0.0
01/03:30am 12.5 8.5 6.8 68 2.7 SSE 17 22 9 12 1024.4 1024.1 0.0
01/03:00am 13.0 9.1 7.0 67 2.9 SSE 17 20 9 11 1024.3 1024.0 0.0
01/02:30am 13.4 9.0 7.4 67 2.9 SSE 20 26 11 14 1024.2 1023.9 0.0
01/02:00am 13.4 9.1 7.2 66 3.0 SSE 19 24 10 13 1024.2 1023.9 0.0
01/01:30am 13.9 9.6 7.2 64 3.3 SSE 19 26 10 14 1024.0 1023.7 0.0
01/01:00am 14.6 9.9 7.9 64 3.3 S 22 30 12 16 1023.9 1023.6 0.0
01/12:30am 14.1 9.4 7.9 66 3.1 S 22 30 12 16 1023.7 1023.4 0.0
01/12:00am 14.1 9.4 7.6 65 3.2 S 22 32 12 17 1023.5 1023.2 0.0
 
Date/Time
WST
Temp
°C
App
Temp
°C
Dew
Point
Rel
Hum
%
Delta-T
°C
Wind Press
QNH
hPa
Press
MSL
hPa
Rain
since 9 am
mm
Dir
 
Spd
km/h
Gust
km/h
Spd
kts
Gust
kts
31/11:30pm 14.1 8.9 7.4 64 3.3 S 24 30 13 16 1023.4 1023.1 0.0
31/11:00pm 14.0 8.8 7.3 64 3.3 SSE 24 32 13 17 1023.3 1023.0 0.0
31/10:30pm 14.2 8.3 7.5 64 3.3 SSE 28 39 15 21 1023.3 1023.0 0.0
31/10:00pm 14.2 9.1 7.7 65 3.2 SSE 24 33 13 18 1023.3 1023.0 0.0
31/09:30pm 14.3 8.9 8.0 66 3.2 SSE 26 37 14 20 1023.1 1022.8 0.0
31/09:00pm 14.5 8.8 8.5 67 3.0 SSE 28 39 15 21 1022.8 1022.5 0.0
31/08:30pm 14.6 9.8 8.8 68 3.0 SSE 24 33 13 18 1022.6 1022.3 0.0
31/08:00pm 14.9 10.2 9.3 69 2.9 SSE 24 33 13 18 1022.1 1021.8 0.0
31/07:30pm 15.3 10.7 9.7 69 2.9 SSE 24 35 13 19 1021.6 1021.3 0.0
31/07:00pm 15.6 11.4 9.7 68 3.1 SSE 22 33 12 18 1020.9 1020.5 0.0
31/06:30pm 16.3 11.5 10.2 67 3.2 SSE 26 39 14 21 1020.4 1020.0 0.0
31/06:00pm 17.3 12.7 10.9 66 3.4 S 26 35 14 19 1020.1 1019.7 0.0
31/05:30pm 18.8 14.7 11.6 63 4.0 SSE 24 33 13 18 1019.4 1019.0 0.0
31/05:00pm 20.5 16.9 13.0 62 4.3 SSE 24 41 13 22 1019.0 1018.6 0.0
31/04:30pm 21.3 17.9 13.7 62 4.4 S 24 37 13 20 1018.3 1018.0 0.0
31/04:00pm 20.7 17.6 15.5 72 3.1 S 26 37 14 20 1018.1 1017.8 0.0
31/03:30pm 19.5 16.5 14.7 74 2.8 S 24 35 13 19 1018.0 1017.7 0.0
31/03:14pm 21.3 16.9 15.2 68 3.6 SSW 32 50 17 27 1017.8 1017.5 0.0
31/03:00pm 21.2 16.9 15.5 70 3.4 SSW 32 43 17 23 1017.7 1017.4 0.0
31/02:30pm 22.1 18.7 16.8 72 3.2 SSW 30 41 16 22 1017.7 1017.4 0.0
31/02:00pm 20.2 16.6 15.2 73 3.0 SW 28 35 15 19 1017.8 1017.5 0.0
31/01:30pm 20.6 16.1 14.9 70 3.4 SSW 32 41 17 22 1017.7 1017.4 0.0
31/01:00pm 24.0 21.7 15.8 60 5.0 SW 22 30 12 16 1017.7 1017.4 0.0
31/12:30pm 23.6 21.8 15.9 62 4.7 SW 20 30 11 16 1017.9 1017.6 0.0
31/12:00pm 23.5 21.8 15.8 62 4.7 SW 19 30 10 16 1018.2 1017.9 0.0
31/11:30am 23.0 22.0 16.5 67 4.0 SW 17 24 9 13 1018.2 1017.9 0.0
31/11:00am 22.2 21.6 16.7 71 3.4 SW 15 19 8 10 1018.3 1018.0 0.0
31/10:30am 20.9 20.8 16.9 78 2.4 SW 13 19 7 10 1018.3 1018.0 0.0
31/10:00am 21.0 21.9 18.4 85 1.6 SSW 11 19 6 10 1018.2 1017.9 0.0
31/09:30am 18.9 19.1 16.7 87 1.3 SSW 11 15 6 8 1018.2 1017.9 0.0
31/09:00am 18.3 17.9 16.3 88 1.2 S 13 17 7 9 1018.1 1017.8 1.4
31/08:30am 18.1 16.9 16.1 88 1.2 S 17 24 9 13 1017.8 1017.5 1.4
31/08:00am 17.3 15.8 15.3 88 1.2 SSW 17 26 9 14 1017.6 1017.3 1.4
31/07:30am 17.0 16.2 15.0 88 1.2 SSW 13 20 7 11 1017.4 1017.1 0.6
31/07:00am 16.6 16.4 14.6 88 1.2 SSE 9 13 5 7 1017.1 1016.8 0.6
31/06:30am 16.7 16.1 14.5 87 1.3 S 11 13 6 7 1017.1 1016.8 0.6
31/06:00am 16.7 18.1 14.5 87 1.3 CALM 0 0 0 0 1017.0 1016.7 0.4
31/05:30am 16.6 18.0 14.4 87 1.3 CALM 0 0 0 0 1016.7 1016.4 0.4
31/05:00am 16.1 17.3 13.9 87 1.2 CALM 0 0 0 0 1016.5 1016.2 0.4
31/04:30am 15.9 17.0 13.6 86 1.3 CALM 0 7 0 4 1016.3 1016.0 0.4
31/04:00am 16.3 15.9 14.0 86 1.3 SE 9 9 5 5 1016.1 1015.8 0.4
31/03:30am 17.1 17.3 14.6 85 1.4 S 7 9 4 5 1016.2 1015.9 0.4
31/03:00am 17.2 17.3 14.5 84 1.6 WSW 7 9 4 5 1016.2 1015.9 0.2
31/02:30am 17.4 17.4 14.1 81 1.9 W 7 9 4 5 1016.5 1016.2 0.2
31/02:00am 17.4 18.6 13.7 79 2.1 CALM 0 4 0 2 1016.6 1016.3 0.0
31/01:30am 17.0 16.3 13.1 78 2.2 SE 9 9 5 5 1016.8 1016.5 0.0
31/01:00am 17.6 17.4 13.5 77 2.3 ESE 7 9 4 5 1017.1 1016.8 0.0
31/12:30am 17.5 16.8 13.2 76 2.4 SE 9 11 5 6 1017.2 1016.9 0.0
31/12:00am 17.7 17.7 13.6 77 2.3 S 6 7 3 4 1017.1 1016.8 0.0
 
Date/Time
WST
Temp
°C
App
Temp
°C
Dew
Point
Rel
Hum
%
Delta-T
°C
Wind Press
QNH
hPa
Press
MSL
hPa
Rain
since 9 am
mm
Dir
 
Spd
km/h
Gust
km/h
Spd
kts
Gust
kts
30/11:30pm 17.5 17.6 13.8 79 2.1 S 6 7 3 4 1017.4 1017.1 0.0
30/11:00pm 16.8 15.6 12.9 78 2.2 SSE 11 13 6 7 1017.2 1016.9 0.0
30/10:30pm 17.0 15.9 13.1 78 2.2 S 11 13 6 7 1017.5 1017.2 0.0
30/10:00pm 17.1 15.6 13.0 77 2.3 S 13 15 7 8 1017.4 1017.1 0.0
30/09:30pm 17.6 15.4 13.3 76 2.4 SSW 17 20 9 11 1017.2 1016.9 0.0
30/09:00pm 17.5 14.9 13.2 76 2.4 S 19 24 10 13 1017.1 1016.8 0.0
30/08:30pm 17.9 15.7 13.2 74 2.7 SSW 17 20 9 11 1017.2 1016.9 0.0
30/08:00pm 18.2 15.6 13.1 72 2.9 SSW 19 24 10 13 1017.2 1016.9 0.0
30/07:30pm 18.2 15.3 12.9 71 3.0 SSW 20 26 11 14 1016.9 1016.6 0.0
30/07:00pm 18.5 15.7 13.1 71 3.1 SSW 20 26 11 14 1016.9 1016.6 0.0
30/06:30pm 18.8 16.1 13.4 71 3.1 SSW 20 30 11 16 1016.8 1016.5 0.0
30/06:00pm 19.0 16.3 13.4 70 3.2 SSW 20 26 11 14 1016.7 1016.4 0.0
30/05:30pm 19.4 16.9 13.6 69 3.3 SSW 19 28 10 15 1016.4 1016.1 0.0
30/05:00pm 19.8 17.2 13.7 68 3.5 SSW 20 30 11 16 1015.9 1015.6 0.0
30/04:30pm 20.2 16.9 13.9 67 3.6 SSW 24 32 13 17 1015.7 1015.4 0.0
30/04:00pm 20.4 17.1 14.1 67 3.7 SW 24 33 13 18 1015.5 1015.2 0.0
30/03:30pm 21.0 17.5 14.4 66 3.9 SW 26 37 14 20 1015.6 1015.3 0.0
30/03:00pm 21.6 17.0 14.7 65 4.1 SW 32 39 17 21 1015.3 1015.0 0.0
30/02:30pm 22.9 19.5 15.7 64 4.3 SW 28 39 15 21 1015.2 1014.9 0.0
30/02:00pm 22.6 19.4 15.2 63 4.4 SW 26 35 14 19 1015.5 1015.2 0.0
30/01:30pm 23.0 19.4 15.3 62 4.6 SSW 28 37 15 20 1015.3 1015.0 0.0
30/01:00pm 22.0 18.2 14.6 63 4.4 SW 28 35 15 19 1015.4 1015.1 0.0
30/12:30pm 22.0 19.0 14.9 64 4.2 SW 24 30 13 16 1015.9 1015.6 0.0
30/12:00pm 22.3 19.6 15.6 66 4.0 SW 24 32 13 17 1016.2 1015.9 0.0
30/11:30am 21.8 19.6 14.9 65 4.1 SSW 20 28 11 15 1016.3 1016.0 0.0

Other Formats:

Comma delimited format used in spreadsheet applications
http://www.bom.gov.au/fwo/IDW60801/IDW60801.94600.axf

JavaScript Object Notation format (JSON) in row-major order
http://www.bom.gov.au/fwo/IDW60801/IDW60801.94600.json